sensor_id;sensor_type;location;lat;lon;timestamp;pressure;altitude;pressure_sealevel;temperature;humidity
53514;BME280;39768;54.148;12.174;2023-04-01T00:02:54;99663.06;;;9.77;100.00
53514;BME280;39768;54.148;12.174;2023-04-01T00:13:48;99674.59;;;10.66;100.00
53514;BME280;39768;54.148;12.174;2023-04-01T00:17:49;99670.16;;;10.39;100.00
53514;BME280;39768;54.148;12.174;2023-04-01T00:21:51;99678.56;;;10.53;100.00
53514;BME280;39768;54.148;12.174;2023-04-01T00:47:19;99679.72;;;10.43;100.00
53514;BME280;39768;54.148;12.174;2023-04-01T00:51:25;99688.47;;;10.15;100.00
53514;BME280;39768;54.148;12.174;2023-04-01T01:00:45;99694.94;;;9.40;100.00
53514;BME280;39768;54.148;12.174;2023-04-01T01:04:48;99687.19;;;9.67;100.00
53514;BME280;39768;54.148;12.174;2023-04-01T01:17:15;99695.00;;;9.71;100.00
53514;BME280;39768;54.148;12.174;2023-04-01T01:38:35;99712.44;;;9.12;100.00
53514;BME280;39768;54.148;12.174;2023-04-01T01:48:06;99719.53;;;9.10;100.00
53514;BME280;39768;54.148;12.174;2023-04-01T01:59:20;99722.34;;;9.04;100.00
53514;BME280;39768;54.148;12.174;2023-04-01T02:03:24;99731.09;;;9.06;100.00
53514;BME280;39768;54.148;12.174;2023-04-01T02:07:31;99733.81;;;8.64;100.00
53514;BME280;39768;54.148;12.174;2023-04-01T02:11:53;99728.69;;;8.97;100.00
53514;BME280;39768;54.148;12.174;2023-04-01T02:16:00;99733.13;;;8.95;100.00
53514;BME280;39768;54.148;12.174;2023-04-01T02:20:14;99742.81;;;8.96;100.00
53514;BME280;39768;54.148;12.174;2023-04-01T02:24:28;99744.28;;;8.70;100.00
53514;BME280;39768;54.148;12.174;2023-04-01T02:28:59;99747.16;;;9.35;100.00
53514;BME280;39768;54.148;12.174;2023-04-01T02:33:03;99749.06;;;8.92;100.00
53514;BME280;39768;54.148;12.174;2023-04-01T02:37:06;99750.78;;;9.33;100.00
53514;BME280;39768;54.148;12.174;2023-04-01T02:41:08;99764.63;;;8.68;100.00
53514;BME280;39768;54.148;12.174;2023-04-01T02:45:39;99772.19;;;8.45;100.00
53514;BME280;39768;54.148;12.174;2023-04-01T02:49:41;99773.66;;;8.58;100.00
53514;BME280;39768;54.148;12.174;2023-04-01T02:53:43;99783.22;;;8.64;100.00
53514;BME280;39768;54.148;12.174;2023-04-01T02:57:44;99773.69;;;8.57;100.00
53514;BME280;39768;54.148;12.174;2023-04-01T03:01:45;99782.19;;;9.11;100.00
53514;BME280;39768;54.148;12.174;2023-04-01T03:05:47;99779.50;;;9.12;100.00
53514;BME280;39768;54.148;12.174;2023-04-01T03:09:48;99780.88;;;8.50;100.00
53514;BME280;39768;54.148;12.174;2023-04-01T03:18:51;99804.03;;;8.80;100.00
53514;BME280;39768;54.148;12.174;2023-04-01T03:29:54;99802.56;;;9.06;100.00
53514;BME280;39768;54.148;12.174;2023-04-01T03:33:56;99818.22;;;8.33;100.00
53514;BME280;39768;54.148;12.174;2023-04-01T03:37:57;99810.63;;;8.15;100.00
53514;BME280;39768;54.148;12.174;2023-04-01T03:41:59;99814.63;;;8.80;100.00
53514;BME280;39768;54.148;12.174;2023-04-01T03:46:01;99817.78;;;8.98;100.00
53514;BME280;39768;54.148;12.174;2023-04-01T03:50:04;99835.44;;;8.56;100.00
53514;BME280;39768;54.148;12.174;2023-04-01T03:54:06;99830.22;;;8.93;100.00
53514;BME280;39768;54.148;12.174;2023-04-01T03:58:08;99830.41;;;8.85;100.00
53514;BME280;39768;54.148;12.174;2023-04-01T04:02:45;99844.22;;;8.58;100.00
53514;BME280;39768;54.148;12.174;2023-04-01T04:13:57;99849.84;;;8.82;100.00
53514;BME280;39768;54.148;12.174;2023-04-01T04:18:53;99859.56;;;8.39;100.00
53514;BME280;39768;54.148;12.174;2023-04-01T04:33:23;99866.34;;;8.52;100.00
53514;BME280;39768;54.148;12.174;2023-04-01T04:37:25;99874.19;;;8.57;100.00
53514;BME280;39768;54.148;12.174;2023-04-01T04:41:27;99888.56;;;7.91;100.00
53514;BME280;39768;54.148;12.174;2023-04-01T04:45:29;99887.66;;;8.44;100.00
53514;BME280;39768;54.148;12.174;2023-04-01T04:49:31;99887.44;;;8.06;100.00
53514;BME280;39768;54.148;12.174;2023-04-01T04:59:18;99896.69;;;8.79;100.00
53514;BME280;39768;54.148;12.174;2023-04-01T05:10:48;99904.53;;;8.83;100.00
53514;BME280;39768;54.148;12.174;2023-04-01T05:15:17;99905.41;;;8.38;100.00
53514;BME280;39768;54.148;12.174;2023-04-01T05:19:19;99919.09;;;8.10;100.00
53514;BME280;39768;54.148;12.174;2023-04-01T05:28:45;99926.13;;;8.10;100.00
53514;BME280;39768;54.148;12.174;2023-04-01T05:32:47;99929.22;;;8.38;100.00
53514;BME280;39768;54.148;12.174;2023-04-01T05:36:48;99934.94;;;8.61;100.00
53514;BME280;39768;54.148;12.174;2023-04-01T05:40:51;99941.25;;;8.54;100.00
53514;BME280;39768;54.148;12.174;2023-04-01T05:44:52;99942.00;;;8.10;100.00
53514;BME280;39768;54.148;12.174;2023-04-01T05:49:13;99950.75;;;8.15;100.00
53514;BME280;39768;54.148;12.174;2023-04-01T05:57:58;99958.84;;;8.03;100.00
53514;BME280;39768;54.148;12.174;2023-04-01T06:02:01;99965.50;;;8.27;100.00
53514;BME280;39768;54.148;12.174;2023-04-01T06:06:03;99975.91;;;8.39;100.00
53514;BME280;39768;54.148;12.174;2023-04-01T06:10:17;99972.25;;;8.46;100.00
53514;BME280;39768;54.148;12.174;2023-04-01T06:14:42;99978.84;;;8.19;100.00
53514;BME280;39768;54.148;12.174;2023-04-01T06:19:14;99987.94;;;8.58;100.00
53514;BME280;39768;54.148;12.174;2023-04-01T06:23:39;99992.13;;;9.16;100.00
53514;BME280;39768;54.148;12.174;2023-04-01T06:28:04;99994.00;;;8.09;100.00
53514;BME280;39768;54.148;12.174;2023-04-01T06:54:58;100036.91;;;8.27;100.00
53514;BME280;39768;54.148;12.174;2023-04-01T06:59:28;100040.22;;;8.42;100.00
53514;BME280;39768;54.148;12.174;2023-04-01T07:03:39;100044.97;;;9.20;100.00
53514;BME280;39768;54.148;12.174;2023-04-01T07:07:48;100059.53;;;7.86;100.00
53514;BME280;39768;54.148;12.174;2023-04-01T07:11:53;100060.81;;;8.18;100.00
53514;BME280;39768;54.148;12.174;2023-04-01T07:16:29;100053.78;;;8.17;100.00
53514;BME280;39768;54.148;12.174;2023-04-01T07:20:33;100066.63;;;8.45;100.00
53514;BME280;39768;54.148;12.174;2023-04-01T07:24:39;100074.78;;;8.27;100.00
53514;BME280;39768;54.148;12.174;2023-04-01T07:28:43;100086.66;;;8.00;100.00
53514;BME280;39768;54.148;12.174;2023-04-01T07:33:04;100080.06;;;8.29;100.00
53514;BME280;39768;54.148;12.174;2023-04-01T07:37:14;100096.22;;;8.07;100.00
53514;BME280;39768;54.148;12.174;2023-04-01T07:41:27;100096.91;;;8.20;100.00
53514;BME280;39768;54.148;12.174;2023-04-01T07:45:37;100095.19;;;7.52;100.00
53514;BME280;39768;54.148;12.174;2023-04-01T07:54:25;100107.41;;;7.60;100.00
53514;BME280;39768;54.148;12.174;2023-04-01T08:07:01;100121.13;;;7.88;100.00
53514;BME280;39768;54.148;12.174;2023-04-01T08:11:13;100135.94;;;8.01;100.00
53514;BME280;39768;54.148;12.174;2023-04-01T08:16:03;100152.09;;;7.78;100.00
53514;BME280;39768;54.148;12.174;2023-04-01T08:20:47;100153.63;;;7.99;100.00
53514;BME280;39768;54.148;12.174;2023-04-01T08:24:48;100164.41;;;7.81;100.00
53514;BME280;39768;54.148;12.174;2023-04-01T08:29:11;100172.94;;;8.01;100.00
53514;BME280;39768;54.148;12.174;2023-04-01T08:33:24;100171.47;;;7.79;100.00
53514;BME280;39768;54.148;12.174;2023-04-01T08:37:35;100178.19;;;8.06;100.00
53514;BME280;39768;54.148;12.174;2023-04-01T08:46:42;100202.25;;;7.83;100.00
53514;BME280;39768;54.148;12.174;2023-04-01T08:51:05;100217.69;;;7.38;100.00
53514;BME280;39768;54.148;12.174;2023-04-01T08:55:22;100206.28;;;8.14;100.00
53514;BME280;39768;54.148;12.174;2023-04-01T08:59:55;100216.59;;;8.36;100.00
53514;BME280;39768;54.148;12.174;2023-04-01T09:13:17;100233.22;;;7.70;100.00
53514;BME280;39768;54.148;12.174;2023-04-01T09:26:16;100245.44;;;7.81;100.00
53514;BME280;39768;54.148;12.174;2023-04-01T09:30:48;100245.78;;;8.28;100.00
53514;BME280;39768;54.148;12.174;2023-04-01T09:34:54;100254.13;;;7.92;100.00
53514;BME280;39768;54.148;12.174;2023-04-01T09:39:23;100271.97;;;7.71;100.00
53514;BME280;39768;54.148;12.174;2023-04-01T09:52:17;100290.44;;;7.71;100.00
53514;BME280;39768;54.148;12.174;2023-04-01T10:05:46;100304.63;;;7.60;100.00
53514;BME280;39768;54.148;12.174;2023-04-01T10:19:20;100324.94;;;7.53;100.00
53514;BME280;39768;54.148;12.174;2023-04-01T10:23:52;100326.84;;;7.30;100.00
53514;BME280;39768;54.148;12.174;2023-04-01T10:37:39;100333.69;;;7.58;100.00
53514;BME280;39768;54.148;12.174;2023-04-01T10:55:18;100352.47;;;8.23;100.00
53514;BME280;39768;54.148;12.174;2023-04-01T11:22:58;100370.53;;;8.65;100.00
53514;BME280;39768;54.148;12.174;2023-04-01T11:31:55;100393.31;;;7.87;100.00
53514;BME280;39768;54.148;12.174;2023-04-01T11:50:02;100415.44;;;7.78;100.00
53514;BME280;39768;54.148;12.174;2023-04-01T11:54:46;100427.00;;;7.57;100.00
53514;BME280;39768;54.148;12.174;2023-04-01T12:07:57;100444.66;;;7.55;100.00
53514;BME280;39768;54.148;12.174;2023-04-01T12:12:27;100451.34;;;8.03;100.00
53514;BME280;39768;54.148;12.174;2023-04-01T12:29:35;100480.75;;;7.56;100.00
53514;BME280;39768;54.148;12.174;2023-04-01T12:42:47;100489.38;;;7.84;100.00
53514;BME280;39768;54.148;12.174;2023-04-01T12:47:18;100505.06;;;8.07;100.00
53514;BME280;39768;54.148;12.174;2023-04-01T12:55:42;100526.66;;;8.64;98.79
53514;BME280;39768;54.148;12.174;2023-04-01T13:04:44;100524.44;;;8.07;100.00
53514;BME280;39768;54.148;12.174;2023-04-01T13:09:01;100538.84;;;7.58;99.99
53514;BME280;39768;54.148;12.174;2023-04-01T13:17:36;100554.50;;;7.94;100.00
53514;BME280;39768;54.148;12.174;2023-04-01T13:22:07;100560.78;;;7.73;100.00
53514;BME280;39768;54.148;12.174;2023-04-01T13:26:20;100561.72;;;7.62;100.00
53514;BME280;39768;54.148;12.174;2023-04-01T13:30:32;100570.59;;;7.47;100.00
53514;BME280;39768;54.148;12.174;2023-04-01T13:35:02;100592.38;;;7.98;97.33
53514;BME280;39768;54.148;12.174;2023-04-01T13:39:19;100585.63;;;7.18;100.00
53514;BME280;39768;54.148;12.174;2023-04-01T13:43:28;100586.44;;;7.44;98.09
53514;BME280;39768;54.148;12.174;2023-04-01T13:47:57;100598.00;;;7.06;99.42
53514;BME280;39768;54.148;12.174;2023-04-01T13:52:20;100594.34;;;7.50;98.68
53514;BME280;39768;54.148;12.174;2023-04-01T13:56:42;100600.38;;;7.84;96.88
53514;BME280;39768;54.148;12.174;2023-04-01T14:01:03;100610.25;;;7.38;97.52
53514;BME280;39768;54.148;12.174;2023-04-01T14:10:04;100617.34;;;7.07;98.76
53514;BME280;39768;54.148;12.174;2023-04-01T14:18:45;100621.72;;;7.13;95.49
53514;BME280;39768;54.148;12.174;2023-04-01T14:27:32;100647.16;;;7.55;96.20
53514;BME280;39768;54.148;12.174;2023-04-01T14:31:44;100657.59;;;7.93;93.81
53514;BME280;39768;54.148;12.174;2023-04-01T14:40:18;100665.69;;;7.30;95.12
53514;BME280;39768;54.148;12.174;2023-04-01T14:53:23;100667.47;;;7.15;94.38
53514;BME280;39768;54.148;12.174;2023-04-01T14:57:31;100679.78;;;7.38;92.01
53514;BME280;39768;54.148;12.174;2023-04-01T15:02:03;100683.31;;;7.13;92.75
53514;BME280;39768;54.148;12.174;2023-04-01T15:15:39;100695.66;;;6.93;95.48
53514;BME280;39768;54.148;12.174;2023-04-01T15:41:37;100739.63;;;7.21;93.80
53514;BME280;39768;54.148;12.174;2023-04-01T15:50:19;100745.78;;;7.29;93.58
53514;BME280;39768;54.148;12.174;2023-04-01T15:59:34;100766.91;;;7.02;92.28
53514;BME280;39768;54.148;12.174;2023-04-01T16:08:51;100790.59;;;6.75;89.58
53514;BME280;39768;54.148;12.174;2023-04-01T16:12:47;100785.38;;;7.14;90.94
53514;BME280;39768;54.148;12.174;2023-04-01T16:17:15;100798.59;;;7.19;91.65
53514;BME280;39768;54.148;12.174;2023-04-01T16:25:53;100815.31;;;7.12;84.63
53514;BME280;39768;54.148;12.174;2023-04-01T16:34:34;100834.59;;;6.80;84.38
53514;BME280;39768;54.148;12.174;2023-04-01T16:39:04;100839.88;;;6.80;84.94
53514;BME280;39768;54.148;12.174;2023-04-01T16:43:16;100845.06;;;6.60;82.67
53514;BME280;39768;54.148;12.174;2023-04-01T16:47:30;100858.28;;;6.71;82.22
53514;BME280;39768;54.148;12.174;2023-04-01T16:51:44;100867.09;;;6.75;80.85
53514;BME280;39768;54.148;12.174;2023-04-01T16:55:54;100871.47;;;6.71;80.27
53514;BME280;39768;54.148;12.174;2023-04-01T17:00:38;100886.38;;;6.58;80.57
53514;BME280;39768;54.148;12.174;2023-04-01T17:04:47;100891.69;;;6.64;78.69
53514;BME280;39768;54.148;12.174;2023-04-01T17:09:05;100911.03;;;6.62;79.27
53514;BME280;39768;54.148;12.174;2023-04-01T17:13:27;100913.63;;;6.57;79.27
53514;BME280;39768;54.148;12.174;2023-04-01T17:17:58;100908.53;;;6.92;78.89
53514;BME280;39768;54.148;12.174;2023-04-01T17:26:39;100939.72;;;6.13;80.05
53514;BME280;39768;54.148;12.174;2023-04-01T17:30:58;100944.47;;;6.73;77.72
53514;BME280;39768;54.148;12.174;2023-04-01T17:35:14;100950.59;;;6.63;79.58
53514;BME280;39768;54.148;12.174;2023-04-01T17:52:27;100989.13;;;6.37;82.84
53514;BME280;39768;54.148;12.174;2023-04-01T17:56:44;100997.66;;;6.07;80.20
53514;BME280;39768;54.148;12.174;2023-04-01T18:27:03;101062.75;;;6.16;79.32
53514;BME280;39768;54.148;12.174;2023-04-01T18:31:10;101059.88;;;5.94;80.01
53514;BME280;39768;54.148;12.174;2023-04-01T18:35:22;101071.72;;;6.36;79.82
53514;BME280;39768;54.148;12.174;2023-04-01T18:39:42;101084.91;;;6.39;77.01
53514;BME280;39768;54.148;12.174;2023-04-01T18:48:34;101093.56;;;6.23;78.02
53514;BME280;39768;54.148;12.174;2023-04-01T18:52:43;101099.84;;;6.37;78.97
53514;BME280;39768;54.148;12.174;2023-04-01T18:56:45;101109.81;;;5.84;80.30
53514;BME280;39768;54.148;12.174;2023-04-01T19:05:24;101128.78;;;6.31;81.28
53514;BME280;39768;54.148;12.174;2023-04-01T19:09:43;101130.53;;;6.29;80.54
53514;BME280;39768;54.148;12.174;2023-04-01T19:13:58;101139.13;;;6.08;81.29
53514;BME280;39768;54.148;12.174;2023-04-01T19:27:18;101160.69;;;5.78;83.53
53514;BME280;39768;54.148;12.174;2023-04-01T19:32:10;101160.50;;;5.63;84.95
53514;BME280;39768;54.148;12.174;2023-04-01T19:40:46;101175.84;;;5.97;82.48
53514;BME280;39768;54.148;12.174;2023-04-01T19:45:14;101184.31;;;5.72;83.95
53514;BME280;39768;54.148;12.174;2023-04-01T19:49:25;101201.75;;;5.62;86.45
53514;BME280;39768;54.148;12.174;2023-04-01T19:53:40;101204.84;;;5.34;86.84
53514;BME280;39768;54.148;12.174;2023-04-01T19:58:06;101213.81;;;5.50;87.39
53514;BME280;39768;54.148;12.174;2023-04-01T20:06:24;101217.31;;;5.47;84.86
53514;BME280;39768;54.148;12.174;2023-04-01T20:10:42;101231.94;;;5.28;86.99
53514;BME280;39768;54.148;12.174;2023-04-01T20:14:53;101235.56;;;5.37;84.86
53514;BME280;39768;54.148;12.174;2023-04-01T20:19:00;101232.78;;;5.26;86.15
53514;BME280;39768;54.148;12.174;2023-04-01T20:27:27;101257.94;;;5.09;83.17
53514;BME280;39768;54.148;12.174;2023-04-01T20:31:42;101264.88;;;5.02;84.23
53514;BME280;39768;54.148;12.174;2023-04-01T20:40:23;101266.91;;;5.21;81.77
53514;BME280;39768;54.148;12.174;2023-04-01T20:45:12;101271.53;;;5.36;80.48
53514;BME280;39768;54.148;12.174;2023-04-01T20:49:15;101281.69;;;5.12;82.99
53514;BME280;39768;54.148;12.174;2023-04-01T21:06:40;101304.78;;;4.80;85.60
53514;BME280;39768;54.148;12.174;2023-04-01T21:11:09;101304.06;;;4.87;83.81
53514;BME280;39768;54.148;12.174;2023-04-01T21:15:54;101307.31;;;5.23;81.88
53514;BME280;39768;54.148;12.174;2023-04-01T21:29:08;101337.19;;;5.25;79.26
53514;BME280;39768;54.148;12.174;2023-04-01T21:33:29;101335.84;;;5.50;78.24
53514;BME280;39768;54.148;12.174;2023-04-01T21:37:42;101343.19;;;5.17;79.27
53514;BME280;39768;54.148;12.174;2023-04-01T21:46:37;101356.41;;;5.21;81.52
53514;BME280;39768;54.148;12.174;2023-04-01T21:51:28;101351.88;;;5.13;83.21
53514;BME280;39768;54.148;12.174;2023-04-01T21:56:05;101361.44;;;5.57;80.43
53514;BME280;39768;54.148;12.174;2023-04-01T22:00:21;101369.91;;;5.40;83.06
53514;BME280;39768;54.148;12.174;2023-04-01T22:04:37;101368.84;;;5.83;81.29
53514;BME280;39768;54.148;12.174;2023-04-01T22:08:45;101384.78;;;5.38;80.93
53514;BME280;39768;54.148;12.174;2023-04-01T22:13:12;101386.69;;;5.45;81.38
53514;BME280;39768;54.148;12.174;2023-04-01T22:21:44;101392.47;;;5.75;79.79
53514;BME280;39768;54.148;12.174;2023-04-01T22:30:27;101400.81;;;5.51;77.36
53514;BME280;39768;54.148;12.174;2023-04-01T22:44:00;101422.28;;;5.74;77.65
53514;BME280;39768;54.148;12.174;2023-04-01T22:48:19;101430.16;;;5.73;75.95
53514;BME280;39768;54.148;12.174;2023-04-01T22:52:38;101426.25;;;6.00;74.15
53514;BME280;39768;54.148;12.174;2023-04-01T22:56:47;101436.69;;;5.93;75.01
53514;BME280;39768;54.148;12.174;2023-04-01T23:00:55;101439.09;;;5.82;75.92
53514;BME280;39768;54.148;12.174;2023-04-01T23:05:00;101439.56;;;6.67;73.25
53514;BME280;39768;54.148;12.174;2023-04-01T23:09:07;101453.97;;;5.77;75.15
53514;BME280;39768;54.148;12.174;2023-04-01T23:13:17;101461.56;;;5.60;75.37
53514;BME280;39768;54.148;12.174;2023-04-01T23:17:45;101458.50;;;5.86;75.43
53514;BME280;39768;54.148;12.174;2023-04-01T23:21:54;101465.72;;;6.53;72.18
53514;BME280;39768;54.148;12.174;2023-04-01T23:26:12;101472.47;;;6.33;72.38
53514;BME280;39768;54.148;12.174;2023-04-01T23:34:39;101478.97;;;6.00;74.56
53514;BME280;39768;54.148;12.174;2023-04-01T23:38:42;101481.56;;;5.97;76.40
53514;BME280;39768;54.148;12.174;2023-04-01T23:42:48;101493.81;;;5.95;75.53
53514;BME280;39768;54.148;12.174;2023-04-01T23:46:50;101491.72;;;5.79;77.58
53514;BME280;39768;54.148;12.174;2023-04-01T23:50:53;101502.09;;;6.17;73.81
53514;BME280;39768;54.148;12.174;2023-04-01T23:55:03;101503.38;;;5.89;76.15
53514;BME280;39768;54.148;12.174;2023-04-01T23:59:13;101518.97;;;5.78;76.35
